Terminal Aerodrome Forecast
Issued by NWS

Home | Current Version | Previous Version | Text Only | Print | Product List | Glossary On
Versions: 1 2 3 4 5 6 7 8 9 10 11 12 13 14 15 16 17 18 19 20 21
406
FTUS44 KLIX 221728
TAFMSY
TAF
KMSY 221728Z 2218/2318 36005KT P6SM FEW030
     FM230800 36004KT 5SM BR SCT060
     FM231100 VRB03KT 2SM BR SCT010
     FM231500 08004KT P6SM FEW150=

USA.gov is the U.S. government's official web portal to all federal, state and local government web resources and services.